< < Back
Terminal Aerodrome Forecast


Current Version              Previous Versions:   1  2  3  4  5  6  7  8  9  

Terminal Aerodrome Forecast

767
FTUS42 KMLB 190500
TAFDAB
TAF
KDAB 190529Z 1906/2006 27003KT P6SM SCT250
     FM191400 01011KT P6SM FEW030 SCT250
     FM191800 04012KT P6SM SCT040 SCT250=



Latest METAR

091
SAUS80 KWBC 200900 RRA
MTRDAB
METAR KDAB 200853Z 23005KT 10SM BKN032 BKN040 BKN055 20/18 A3002 RMK AO2
SLP165 T02000183 58008


USA.gov is the U.S. government's official web portal to all federal, state and local government web resources and services.